Time;durP1;ratioP1;P1;durP2;ratioP2;P2;SDS_P1;SDS_P2;PMS_P1;PMS_P2;Temp;Humidity;BMP_temperature;BMP_pressure;BME280_temperature;BME280_humidity;BME280_pressure;Samples;Min_cycle;Max_cycle;Signal;HPM_P1;HPM_P2
2023/12/04 00:00:45;;;;;;;47.92;22.38;;;;;;;;;;4913886;29;20028;-64
2023/12/04 00:03:10;;;;;;;47.35;21.85;;;;;;;;;;4915104;29;20024;-65
2023/12/04 00:05:36;;;;;;;43.40;19.80;;;;;;;;;;4915313;29;20594;-65
2023/12/04 00:08:02;;;;;;;44.72;20.10;;;;;;;;;;4915992;29;20385;-65
2023/12/04 00:10:28;;;;;;;38.72;17.90;;;;;;;;;;4914312;29;20077;-64
2023/12/04 00:12:54;;;;;;;42.78;19.48;;;;;;;;;;4914362;29;20020;-64
2023/12/04 00:15:21;;;;;;;39.67;18.50;;;;;;;;;;4915723;29;20024;-64
2023/12/04 00:17:47;;;;;;;41.83;18.52;;;;;;;;;;4914313;29;20048;-64
2023/12/04 00:20:13;;;;;;;42.55;19.00;;;;;;;;;;4915142;29;20036;-64
2023/12/04 00:22:39;;;;;;;42.50;19.20;;;;;;;;;;4913977;29;20030;-65
2023/12/04 00:25:06;;;;;;;41.63;18.27;;;;;;;;;;4915751;29;20031;-64
2023/12/04 00:27:32;;;;;;;43.13;19.20;;;;;;;;;;4910267;29;20036;-64
2023/12/04 00:29:58;;;;;;;39.17;18.85;;;;;;;;;;4914993;29;20020;-65
2023/12/04 00:32:24;;;;;;;45.67;20.38;;;;;;;;;;4911683;29;20024;-64
2023/12/04 00:34:50;;;;;;;43.45;20.55;;;;;;;;;;4914669;29;20425;-64
2023/12/04 00:37:16;;;;;;;42.72;19.15;;;;;;;;;;4914731;29;20537;-64
2023/12/04 00:39:42;;;;;;;47.92;19.77;;;;;;;;;;4914992;29;20143;-64
2023/12/04 00:42:08;;;;;;;44.42;18.58;;;;;;;;;;4915259;29;20618;-64
2023/12/04 00:44:34;;;;;;;45.42;20.35;;;;;;;;;;4914798;29;20020;-64
2023/12/04 00:47:00;;;;;;;45.97;19.40;;;;;;;;;;4914977;29;20024;-64
2023/12/04 00:49:26;;;;;;;44.60;20.05;;;;;;;;;;4913941;29;20024;-64
2023/12/04 00:51:52;;;;;;;48.72;21.00;;;;;;;;;;4914348;29;20668;-64
2023/12/04 00:54:20;;;;;;;47.85;21.30;;;;;;;;;;4915629;29;20035;-64
2023/12/04 00:56:46;;;;;;;46.20;20.23;;;-6.60;99.90;;;;;;4914047;29;20047;-64
2023/12/04 00:59:12;;;;;;;46.38;21.15;;;-6.60;99.90;;;;;;4914993;29;20095;-64
2023/12/04 01:01:37;;;;;;;42.63;20.08;;;-6.60;99.90;;;;;;4915876;29;20032;-64
2023/12/04 01:04:03;;;;;;;45.20;19.45;;;-6.60;99.90;;;;;;4914893;29;20837;-64
2023/12/04 01:06:29;;;;;;;46.97;21.30;;;-6.50;99.90;;;;;;4914807;29;20381;-64
2023/12/04 01:08:55;;;;;;;51.20;21.10;;;-6.50;99.90;;;;;;4914652;29;20715;-64
2023/12/04 01:11:21;;;;;;;47.08;21.00;;;-6.50;99.90;;;;;;4914639;29;20084;-64
2023/12/04 01:13:47;;;;;;;44.58;19.20;;;-6.40;99.90;;;;;;4913521;29;20035;-64
2023/12/04 01:16:14;;;;;;;45.88;20.60;;;-6.30;99.90;;;;;;4914654;29;20100;-64
2023/12/04 01:18:40;;;;;;;42.72;18.92;;;-6.30;99.90;;;;;;4913555;29;20036;-65
2023/12/04 01:21:08;;;;;;;42.10;19.05;;;-6.30;99.90;;;;;;4913850;29;20576;-64
2023/12/04 01:23:34;;;;;;;39.08;18.42;;;-6.30;99.90;;;;;;4913792;29;20381;-64
2023/12/04 01:26:00;;;;;;;40.22;18.88;;;-6.30;99.90;;;;;;4914034;29;20024;-64
2023/12/04 01:28:25;;;;;;;41.53;19.23;;;-6.40;99.90;;;;;;4914255;29;20488;-64
2023/12/04 01:30:51;;;;;;;42.88;19.83;;;-6.40;99.90;;;;;;4913309;29;20047;-65
2023/12/04 01:33:17;;;;;;;41.10;19.23;;;-6.40;99.90;;;;;;4912951;29;20020;-64
2023/12/04 01:35:42;;;;;;;41.35;18.85;;;-6.40;99.90;;;;;;4913097;29;20064;-65
2023/12/04 01:38:08;;;;;;;39.58;18.10;;;-6.30;99.90;;;;;;4913783;29;20048;-64
2023/12/04 01:40:34;;;;;;;42.28;18.42;;;-6.20;99.90;;;;;;4913594;29;20043;-64
2023/12/04 01:42:59;;;;;;;40.72;18.55;;;-6.20;99.90;;;;;;4911554;29;20105;-64
2023/12/04 01:45:25;;;;;;;36.35;18.35;;;-6.10;99.90;;;;;;4914379;29;20035;-64
2023/12/04 01:47:51;;;;;;;44.67;20.08;;;-6.10;99.90;;;;;;4913244;29;20632;-64
2023/12/04 01:50:17;;;;;;;42.15;18.08;;;-6.10;99.90;;;;;;4913844;29;20393;-64
2023/12/04 01:52:43;;;;;;;40.65;17.70;;;-6.10;99.90;;;;;;4912370;29;20115;-64
2023/12/04 01:55:10;;;;;;;38.08;17.13;;;-6.10;99.90;;;;;;4913573;29;20103;-64
2023/12/04 01:57:36;;;;;;;37.55;17.95;;;-6.10;99.90;;;;;;4912947;29;20382;-64
2023/12/04 02:00:02;;;;;;;39.45;18.65;;;-6.10;99.90;;;;;;4914269;29;20028;-64
2023/12/04 02:02:29;;;;;;;41.97;18.58;;;-6.10;99.90;;;;;;4913350;29;20394;-64
2023/12/04 02:04:56;;;;;;;47.95;21.60;;;-6.10;99.90;;;;;;4913725;29;20020;-64
2023/12/04 02:07:22;;;;;;;49.80;21.00;;;-6.20;99.90;;;;;;4913897;29;20458;-64
2023/12/04 02:09:48;;;;;;;47.88;20.55;;;-6.20;99.90;;;;;;4912779;29;20028;-64
2023/12/04 02:12:14;;;;;;;44.95;21.77;;;-6.20;99.90;;;;;;4911374;29;20032;-66
2023/12/04 02:14:39;;;;;;;49.30;20.92;;;-6.20;99.90;;;;;;4913348;29;20091;-64
2023/12/04 02:17:06;;;;;;;45.67;19.80;;;-6.20;99.90;;;;;;4913741;29;20036;-64
2023/12/04 02:19:32;;;;;;;39.35;18.83;;;-6.30;99.90;;;;;;4913555;29;20031;-64
2023/12/04 02:21:58;;;;;;;43.97;18.52;;;-6.30;99.90;;;;;;4912321;29;20040;-64
2023/12/04 02:24:24;;;;;;;40.35;17.88;;;-6.30;99.90;;;;;;4914080;29;20456;-64
2023/12/04 02:26:58;;;;;;;40.45;18.85;;;-6.30;99.90;;;;;;4897492;29;20023;-64
2023/12/04 02:29:31;;;;;;;38.55;18.48;;;-6.30;99.90;;;;;;4913745;29;20084;-64
2023/12/04 02:31:57;;;;;;;41.08;18.35;;;-6.30;99.90;;;;;;4911013;29;20134;-64
2023/12/04 02:34:24;;;;;;;38.80;17.17;;;-6.40;99.90;;;;;;4909900;29;20060;-64
2023/12/04 02:36:51;;;;;;;42.10;19.23;;;-6.40;99.90;;;;;;4896795;29;20043;-64
2023/12/04 02:39:17;;;;;;;37.65;18.55;;;-6.40;99.90;;;;;;4913550;29;20028;-64
2023/12/04 02:41:42;;;;;;;40.83;18.73;;;-6.40;99.90;;;;;;4912544;29;20533;-64
2023/12/04 02:44:08;;;;;;;38.88;17.95;;;-6.40;99.90;;;;;;4913606;29;20474;-64
2023/12/04 02:46:34;;;;;;;37.38;17.70;;;-6.40;99.90;;;;;;4912440;29;20040;-64
2023/12/04 02:49:00;;;;;;;37.45;18.08;;;-6.40;99.90;;;;;;4913801;29;20067;-64
2023/12/04 02:51:26;;;;;;;42.65;19.88;;;-6.30;99.90;;;;;;4912313;29;20090;-64
2023/12/04 02:53:52;;;;;;;38.80;17.75;;;-6.30;99.90;;;;;;4913110;29;20032;-64
2023/12/04 02:56:17;;;;;;;42.03;19.40;;;-6.30;99.90;;;;;;4913078;29;20049;-64
2023/12/04 02:58:43;;;;;;;35.22;17.33;;;-6.20;99.90;;;;;;4912778;29;20032;-64
2023/12/04 03:01:09;;;;;;;38.35;19.13;;;-6.10;99.90;;;;;;4912926;29;20024;-64
2023/12/04 03:03:34;;;;;;;38.33;18.70;;;-5.90;99.90;;;;;;4913082;29;20089;-64
2023/12/04 03:06:00;;;;;;;38.17;17.73;;;-6.00;99.90;;;;;;4912989;29;20043;-64
2023/12/04 03:08:25;;;;;;;35.97;18.00;;;-5.90;99.90;;;;;;4913315;29;20029;-64
2023/12/04 03:10:51;;;;;;;37.53;16.73;;;-5.90;99.90;;;;;;4912431;29;20653;-64
2023/12/04 03:13:16;;;;;;;36.20;18.10;;;-5.90;99.90;;;;;;4911305;29;20074;-64
2023/12/04 03:15:42;;;;;;;34.50;16.23;;;-6.00;99.90;;;;;;4912404;29;20036;-64
2023/12/04 03:18:08;;;;;;;31.70;15.98;;;-6.10;99.90;;;;;;4913311;29;20092;-64
2023/12/04 03:20:33;;;;;;;38.10;18.35;;;-6.10;99.90;;;;;;4911886;29;20036;-65
2023/12/04 03:22:59;;;;;;;38.15;17.35;;;-6.20;99.90;;;;;;4915590;29;20351;-64
2023/12/04 03:25:24;;;;;;;38.33;18.35;;;-6.10;99.90;;;;;;4917055;29;20048;-64
2023/12/04 03:27:50;;;;;;;34.65;16.92;;;-6.10;99.90;;;;;;4916061;29;20036;-65
2023/12/04 03:30:16;;;;;;;32.97;15.18;;;-6.10;99.90;;;;;;4917053;29;20104;-64
2023/12/04 03:32:41;;;;;;;41.15;17.30;;;-6.10;99.90;;;;;;4911918;29;20505;-64
2023/12/04 03:35:07;;;;;;;35.88;16.08;;;-6.00;99.90;;;;;;4918406;29;20051;-64
2023/12/04 03:37:33;;;;;;;34.47;17.10;;;-6.10;99.90;;;;;;4916576;29;20052;-65
2023/12/04 03:39:58;;;;;;;37.55;17.85;;;-6.00;99.90;;;;;;4916650;29;20447;-63
2023/12/04 03:42:24;;;;;;;36.58;16.50;;;-6.00;99.90;;;;;;4914523;29;20040;-64
2023/12/04 03:44:50;;;;;;;36.30;17.20;;;-5.90;99.90;;;;;;4916099;29;20079;-64
2023/12/04 03:47:15;;;;;;;36.90;16.73;;;-5.90;99.90;;;;;;4916244;29;20059;-64
2023/12/04 03:49:41;;;;;;;32.10;14.98;;;-5.90;99.90;;;;;;4916077;29;20028;-64
2023/12/04 03:52:06;;;;;;;34.38;15.02;;;-5.90;99.90;;;;;;4915951;29;20083;-64
2023/12/04 03:54:32;;;;;;;35.28;17.50;;;-5.90;99.90;;;;;;4915913;29;20054;-64
2023/12/04 03:56:57;;;;;;;37.25;17.15;;;-5.90;99.90;;;;;;4915794;29;20069;-64
2023/12/04 03:59:23;;;;;;;33.38;15.65;;;-6.00;99.90;;;;;;4916421;29;20036;-63
2023/12/04 04:01:48;;;;;;;36.97;16.92;;;-5.90;99.90;;;;;;4915193;29;20088;-67
2023/12/04 04:04:14;;;;;;;37.97;16.80;;;-6.00;99.90;;;;;;4916398;29;20039;-64
2023/12/04 04:06:40;;;;;;;32.30;16.15;;;-6.00;99.90;;;;;;4915305;29;20039;-63
2023/12/04 04:09:05;;;;;;;33.10;16.10;;;-6.00;99.90;;;;;;4912888;29;20103;-64
2023/12/04 04:11:31;;;;;;;37.00;16.90;;;-6.00;99.90;;;;;;4914397;29;20040;-65
2023/12/04 04:13:57;;;;;;;36.40;17.00;;;-6.00;99.90;;;;;;4915652;29;20056;-64
2023/12/04 04:16:22;;;;;;;34.33;16.33;;;-6.00;99.90;;;;;;4916033;29;20036;-64
2023/12/04 04:18:48;;;;;;;28.45;15.07;;;-6.00;99.90;;;;;;4915491;29;20537;-64
2023/12/04 04:21:13;;;;;;;28.38;14.88;;;-5.80;99.90;;;;;;4915697;29;20042;-64
2023/12/04 04:23:39;;;;;;;26.67;13.63;;;-5.60;99.90;;;;;;4917282;29;20032;-64
2023/12/04 04:26:05;;;;;;;26.33;13.82;;;-5.50;99.90;;;;;;4915899;29;20120;-64
2023/12/04 04:28:30;;;;;;;27.73;13.57;;;-5.40;99.90;;;;;;4915698;29;20040;-64
2023/12/04 04:30:56;;;;;;;27.42;13.82;;;-5.30;99.90;;;;;;4913746;29;20036;-64
2023/12/04 04:33:21;;;;;;;26.17;13.45;;;-5.30;99.90;;;;;;4910604;29;20030;-64
2023/12/04 04:35:47;;;;;;;26.05;13.10;;;-5.30;99.90;;;;;;4914736;29;20106;-64
2023/12/04 04:38:12;;;;;;;30.25;13.90;;;-5.30;99.90;;;;;;4915136;29;20055;-64
2023/12/04 04:40:41;;;;;;;27.90;14.43;;;-5.20;99.90;;;;;;4913029;29;20091;-64
2023/12/04 04:43:08;;;;;;;26.98;12.82;;;-5.20;99.90;;;;;;4915813;29;20020;-64
2023/12/04 04:45:33;;;;;;;23.13;12.23;;;-5.20;99.90;;;;;;4914914;29;20036;-64
2023/12/04 04:47:59;;;;;;;24.05;12.63;;;-5.20;99.90;;;;;;4915301;29;20043;-64
2023/12/04 04:50:24;;;;;;;28.33;13.75;;;-5.30;99.90;;;;;;4915958;29;20099;-64
2023/12/04 04:52:50;;;;;;;23.80;11.88;;;-5.30;99.90;;;;;;4914581;29;20096;-64
2023/12/04 04:55:15;;;;;;;26.98;13.60;;;-5.40;99.90;;;;;;4915276;29;20028;-64
2023/12/04 04:57:41;;;;;;;29.25;14.90;;;-5.40;99.90;;;;;;4914303;29;20390;-64
2023/12/04 05:00:07;;;;;;;27.20;13.52;;;-5.50;99.90;;;;;;4914065;29;20036;-63
2023/12/04 05:02:34;;;;;;;24.27;12.57;;;-5.50;99.90;;;;;;4914143;29;20047;-64
2023/12/04 05:05:02;;;;;;;26.90;14.15;;;-5.50;99.90;;;;;;4915686;29;20020;-64
2023/12/04 05:07:28;;;;;;;29.60;14.38;;;-5.50;99.90;;;;;;4915388;29;20039;-64
2023/12/04 05:09:54;;;;;;;28.23;14.45;;;-5.50;99.90;;;;;;4914720;29;20024;-64
2023/12/04 05:12:19;;;;;;;27.95;13.98;;;-5.50;99.90;;;;;;4914314;29;20032;-64
2023/12/04 05:14:45;;;;;;;30.02;15.25;;;-5.50;99.90;;;;;;4914386;29;20386;-64
2023/12/04 05:17:10;;;;;;;28.58;13.88;;;-5.50;99.90;;;;;;4914699;29;20076;-64
2023/12/04 05:19:36;;;;;;;27.48;14.25;;;-5.40;99.90;;;;;;4914168;29;20111;-64
2023/12/04 05:22:02;;;;;;;30.67;14.23;;;-5.40;99.90;;;;;;4914744;29;20032;-64
2023/12/04 05:24:27;;;;;;;29.08;14.13;;;-5.30;99.90;;;;;;4914182;29;20075;-63
2023/12/04 05:26:53;;;;;;;27.27;13.85;;;-5.20;99.90;;;;;;4913530;29;20028;-64
2023/12/04 05:29:21;;;;;;;29.23;13.40;;;;;;;;;;4914885;29;20028;-64
2023/12/04 05:31:47;;;;;;;30.50;14.65;;;;;;;;;;4911554;29;20030;-64
2023/12/04 05:34:13;;;;;;;27.60;13.95;;;;;;;;;;4913101;29;20083;-64
2023/12/04 05:36:39;;;;;;;26.85;14.15;;;;;;;;;;4913076;29;20036;-63
2023/12/04 05:39:05;;;;;;;29.67;14.20;;;;;;;;;;4914703;29;20039;-64
2023/12/04 05:41:31;;;;;;;33.80;14.23;;;;;;;;;;4914276;29;20056;-63
2023/12/04 05:43:57;;;;;;;29.50;14.57;;;;;;;;;;4913962;29;20378;-64
2023/12/04 05:46:23;;;;;;;31.27;14.15;;;;;;;;;;4913941;29;20036;-63
2023/12/04 05:48:49;;;;;;;29.52;14.75;;;;;;;;;;4898516;29;20020;-64
2023/12/04 05:51:15;;;;;;;27.45;13.75;;;;;;;;;;4913849;29;20059;-66
2023/12/04 05:53:41;;;;;;;30.50;14.68;;;;;;;;;;4913312;29;20052;-64
2023/12/04 05:56:08;;;;;;;30.55;14.20;;;;;;;;;;4914096;29;20122;-63
2023/12/04 05:58:34;;;;;;;31.50;15.13;;;;;;;;;;4913473;29;20016;-64
2023/12/04 06:01:00;;;;;;;25.77;13.23;;;;;;;;;;4912742;29;20044;-63
2023/12/04 06:03:26;;;;;;;28.60;14.13;;;;;;;;;;4913123;29;20033;-64
2023/12/04 06:05:52;;;;;;;30.70;14.55;;;;;;;;;;4913148;29;20467;-64
2023/12/04 06:08:18;;;;;;;30.60;13.77;;;;;;;;;;4914327;29;20039;-64
2023/12/04 06:10:44;;;;;;;29.95;14.95;;;;;;;;;;4912567;29;20533;-64
2023/12/04 06:13:10;;;;;;;28.15;13.75;;;;;;;;;;4914260;29;20027;-63
2023/12/04 06:15:36;;;;;;;26.60;13.52;;;;;;;;;;4913123;29;20063;-64
2023/12/04 06:18:02;;;;;;;28.40;14.23;;;;;;;;;;4914048;29;20068;-63
2023/12/04 06:20:28;;;;;;;28.67;14.32;;;;;;;;;;4913812;29;20024;-64
2023/12/04 06:22:54;;;;;;;27.23;14.52;;;;;;;;;;4913017;29;20020;-63
2023/12/04 06:25:20;;;;;;;27.75;14.30;;;;;;;;;;4913930;29;20386;-63
2023/12/04 06:27:46;;;;;;;29.38;13.88;;;;;;;;;;4912641;29;20429;-64
2023/12/04 06:30:13;;;;;;;30.33;14.35;;;;;;;;;;4912165;29;20032;-64
2023/12/04 06:32:39;;;;;;;29.13;15.52;;;;;;;;;;4908896;29;20112;-63
2023/12/04 06:35:05;;;;;;;29.08;14.13;;;;;;;;;;4913534;29;20024;-63
2023/12/04 06:37:32;;;;;;;31.30;13.70;;;;;;;;;;4912882;29;20052;-63
2023/12/04 06:40:02;;;;;;;28.98;13.10;;;;;;;;;;4913376;29;20036;-63
2023/12/04 06:42:28;;;;;;;27.35;14.25;;;;;;;;;;4913041;29;20107;-63
2023/12/04 06:44:54;;;;;;;26.42;13.55;;;;;;;;;;4910702;29;20095;-64
2023/12/04 06:47:23;;;;;;;29.60;12.45;;;;;;;;;;4912602;29;20044;-68
2023/12/04 06:49:49;;;;;;;26.88;13.57;;;;;;;;;;4913111;29;20068;-65
2023/12/04 06:52:15;;;;;;;29.85;13.73;;;;;;;;;;4913397;29;20072;-71
2023/12/04 06:54:41;;;;;;;26.05;12.82;;;;;;;;;;4912283;29;20024;-65
2023/12/04 06:57:07;;;;;;;26.10;13.40;;;;;;;;;;4915317;29;20024;-65
2023/12/04 06:59:33;;;;;;;26.85;13.18;;;;;;;;;;4917232;29;20120;-65
2023/12/04 07:01:59;;;;;;;25.42;12.27;;;;;;;;;;4914604;29;20059;-64
2023/12/04 07:04:25;;;;;;;28.23;14.30;;;;;;;;;;4917776;29;20029;-64
2023/12/04 07:06:51;;;;;;;30.77;14.10;;;;;;;;;;4915284;29;20052;-64
2023/12/04 07:09:17;;;;;;;30.02;14.95;;;;;;;;;;4912188;29;20032;-65
2023/12/04 07:11:44;;;;;;;30.27;14.50;;;;;;;;;;4916174;29;20043;-63
2023/12/04 07:14:10;;;;;;;27.05;14.40;;;;;;;;;;4917018;29;20107;-65
2023/12/04 07:16:40;;;;;;;28.67;14.75;;;;;;;;;;4916476;29;20043;-62
2023/12/04 07:19:06;;;;;;;27.90;15.02;;;;;;;;;;4917385;29;20024;-64
2023/12/04 07:21:32;;;;;;;25.35;13.18;;;;;;;;;;4916416;29;20035;-65
2023/12/04 07:23:58;;;;;;;29.33;15.25;;;;;;;;;;4916644;29;20076;-65
2023/12/04 07:26:26;;;;;;;27.50;13.57;;;;;;;;;;4916451;29;20501;-63
2023/12/04 07:28:52;;;;;;;27.23;14.35;;;;;;;;;;4915744;29;20086;-63
2023/12/04 07:31:19;;;;;;;24.65;13.57;;;;;;;;;;4914716;29;20040;-63
2023/12/04 07:33:45;;;;;;;27.48;13.98;;;-4.40;99.90;;;;;;4911480;29;20174;-63
2023/12/04 07:36:11;;;;;;;27.25;14.32;;;-4.50;99.90;;;;;;4898923;29;20031;-63
2023/12/04 07:38:37;;;;;;;26.58;13.88;;;-4.60;99.90;;;;;;4915087;29;20059;-64
2023/12/04 07:41:02;;;;;;;26.35;12.73;;;-4.60;99.90;;;;;;4916298;29;20028;-63
2023/12/04 07:43:28;;;;;;;26.45;13.75;;;-4.60;99.90;;;;;;4916329;29;20028;-64
2023/12/04 07:45:56;;;;;;;26.08;13.63;;;-4.60;99.90;;;;;;4915302;29;20020;-64
2023/12/04 07:48:21;;;;;;;24.95;13.05;;;-4.50;99.90;;;;;;4919002;29;20552;-64
2023/12/04 07:50:48;;;;;;;25.98;13.38;;;;;;;;;;4915181;29;20025;-64
2023/12/04 07:53:17;;;;;;;25.75;13.98;;;;;;;;;;4916052;29;20083;-63
2023/12/04 07:55:44;;;;;;;26.83;13.75;;;;;;;;;;4915250;29;20032;-64
2023/12/04 07:58:09;;;;;;;25.48;14.05;;;;;;;;;;4916231;29;20516;-63
2023/12/04 08:00:35;;;;;;;21.77;12.48;;;;;;;;;;4913108;29;20107;-64
2023/12/04 08:03:02;;;;;;;24.38;12.77;;;;;;;;;;4915431;29;20390;-63
2023/12/04 08:05:29;;;;;;;22.20;11.45;;;;;;;;;;4916443;29;20488;-63
2023/12/04 08:07:55;;;;;;;26.10;13.68;;;-3.70;99.90;;;;;;4913679;29;20028;-64
2023/12/04 08:10:23;;;;;;;28.02;13.95;;;;;;;;;;4915978;29;20331;-64
2023/12/04 08:12:49;;;;;;;23.50;12.18;;;;;;;;;;4907693;29;20096;-64
2023/12/04 08:15:15;;;;;;;23.60;14.32;;;-3.50;99.90;;;;;;4915104;29;20028;-64
2023/12/04 08:17:41;;;;;;;24.73;13.02;;;-3.50;99.90;;;;;;4912851;29;20504;-64
2023/12/04 08:20:07;;;;;;;20.73;12.38;;;-3.50;99.90;;;;;;4902917;29;21284;-64
2023/12/04 08:22:33;;;;;;;23.45;12.63;;;-3.40;99.90;;;;;;4910379;29;20107;-64
2023/12/04 08:24:59;;;;;;;24.38;12.95;;;-3.40;99.90;;;;;;4915987;29;20115;-64
2023/12/04 08:27:24;;;;;;;27.35;13.38;;;-3.30;99.90;;;;;;4913874;29;20043;-64
2023/12/04 08:29:50;;;;;;;21.00;11.90;;;-3.20;99.90;;;;;;4920563;29;20046;-63
2023/12/04 08:32:16;;;;;;;25.73;14.02;;;-3.10;99.90;;;;;;4915732;29;20047;-64
2023/12/04 08:34:41;;;;;;;23.40;11.98;;;-3.10;99.90;;;;;;4899149;29;20046;-64
2023/12/04 08:37:07;;;;;;;22.25;12.02;;;-3.10;99.90;;;;;;4927776;29;20052;-63
2023/12/04 08:39:33;;;;;;;23.42;12.13;;;;;;;;;;4918704;29;20367;-63
2023/12/04 08:41:59;;;;;;;21.95;11.88;;;;;;;;;;4915200;29;20034;-63
2023/12/04 08:44:25;;;;;;;23.80;12.07;;;;;;;;;;4915554;29;20429;-64
2023/12/04 08:46:51;;;;;;;19.42;10.90;;;;;;;;;;4914929;29;20036;-64
2023/12/04 08:49:17;;;;;;;22.80;12.68;;;;;;;;;;4913945;29;20032;-64
2023/12/04 08:51:43;;;;;;;23.13;12.10;;;;;;;;;;4914578;29;20029;-64
2023/12/04 08:54:09;;;;;;;19.60;11.45;;;;;;;;;;4899086;29;20028;-63
2023/12/04 08:56:35;;;;;;;20.67;10.75;;;;;;;;;;4914190;29;20119;-64
2023/12/04 08:59:01;;;;;;;22.23;11.02;;;;;;;;;;4915884;29;20541;-63
2023/12/04 09:01:26;;;;;;;20.10;11.27;;;-2.10;99.90;;;;;;4914951;29;20086;-63
2023/12/04 09:03:52;;;;;;;20.50;11.05;;;-2.20;99.90;;;;;;4914515;29;20035;-64
2023/12/04 09:06:18;;;;;;;17.83;10.07;;;-2.20;99.90;;;;;;4915196;29;20068;-63
2023/12/04 09:08:43;;;;;;;19.67;11.13;;;-2.20;99.90;;;;;;4914122;29;20040;-64
2023/12/04 09:11:09;;;;;;;18.42;10.30;;;-2.10;99.90;;;;;;4915048;29;20138;-63
2023/12/04 09:13:34;;;;;;;21.88;11.38;;;-2.20;99.90;;;;;;4914850;29;20110;-64
2023/12/04 09:16:00;;;;;;;18.40;10.40;;;-2.20;99.90;;;;;;4913939;29;20039;-63
2023/12/04 09:18:26;;;;;;;21.90;10.77;;;-2.30;99.90;;;;;;4914616;29;20051;-63
2023/12/04 09:20:51;;;;;;;24.55;12.20;;;-2.30;99.90;;;;;;4913460;29;20032;-63
2023/12/04 09:23:17;;;;;;;19.38;11.00;;;-2.30;99.90;;;;;;4915141;29;20032;-63
2023/12/04 09:25:42;;;;;;;24.90;12.55;;;-2.30;99.90;;;;;;4914531;29;20115;-64
2023/12/04 09:28:08;;;;;;;21.27;11.27;;;-2.20;99.90;;;;;;4918829;29;20028;-64
2023/12/04 09:30:37;;;;;;;20.00;11.02;;;-2.10;99.90;;;;;;4919118;29;20036;-63
2023/12/04 09:33:02;;;;;;;21.00;11.25;;;-2.10;99.90;;;;;;4916916;29;20026;-63
2023/12/04 09:35:28;;;;;;;20.17;11.30;;;-2.00;99.90;;;;;;4915320;29;20036;-63
2023/12/04 09:37:54;;;;;;;21.20;10.77;;;-1.90;99.90;;;;;;4913259;29;20076;-63
2023/12/04 09:40:19;;;;;;;20.10;10.90;;;-1.70;99.90;;;;;;4915131;29;20050;-63
2023/12/04 09:42:45;;;;;;;19.55;11.38;;;-1.60;99.90;;;;;;4913712;29;20088;-63
2023/12/04 09:45:12;;;;;;;20.02;11.60;;;-1.50;99.90;;;;;;4914778;29;20063;-63
2023/12/04 09:47:38;;;;;;;23.23;12.95;;;-1.50;99.90;;;;;;4913445;29;20056;-64
2023/12/04 09:50:05;;;;;;;21.52;11.73;;;-1.40;99.90;;;;;;4913637;29;20142;-63
2023/12/04 09:52:33;;;;;;;25.02;13.00;;;-1.40;99.90;;;;;;4913777;29;20359;-63
2023/12/04 09:54:59;;;;;;;23.63;12.23;;;-1.50;99.90;;;;;;4914394;29;20033;-63
2023/12/04 09:57:26;;;;;;;22.48;13.13;;;-1.50;99.90;;;;;;4913929;29;20771;-63
2023/12/04 09:59:52;;;;;;;23.00;12.32;;;-1.60;99.90;;;;;;4913650;29;20244;-64
2023/12/04 10:02:19;;;;;;;23.55;12.90;;;-1.60;99.90;;;;;;4897220;29;20431;-64
2023/12/04 10:04:46;;;;;;;25.65;13.18;;;-1.60;99.90;;;;;;4913728;29;20051;-64
2023/12/04 10:07:11;;;;;;;28.98;13.82;;;-1.70;99.90;;;;;;4913936;29;20516;-63
2023/12/04 10:09:37;;;;;;;22.30;12.15;;;-1.60;99.90;;;;;;4912967;29;20024;-62
2023/12/04 10:12:03;;;;;;;25.10;14.25;;;-1.60;99.90;;;;;;4914224;29;20032;-63
2023/12/04 10:14:28;;;;;;;22.58;13.35;;;-1.50;99.90;;;;;;4914354;29;20028;-64
2023/12/04 10:16:54;;;;;;;23.95;13.20;;;-1.60;99.90;;;;;;4913262;29;20596;-68
2023/12/04 10:19:31;;;;;;;29.00;14.77;;;-1.50;99.90;;;;;;4906249;29;20099;-64
2023/12/04 10:22:03;;;;;;;27.67;14.57;;;-1.50;99.90;;;;;;4906457;29;20024;-64
2023/12/04 10:24:37;;;;;;;27.00;13.23;;;-1.30;99.90;;;;;;4913135;29;20441;-66
2023/12/04 10:27:09;;;;;;;25.48;12.65;;;-1.20;99.90;;;;;;4912264;29;20445;-63
2023/12/04 10:29:45;;;;;;;19.63;10.13;;;-1.10;99.90;;;;;;4910818;29;20123;-65
2023/12/04 10:32:11;;;;;;;21.77;12.02;;;-1.00;99.90;;;;;;4912823;29;20032;-63
2023/12/04 10:34:37;;;;;;;23.30;13.65;;;-0.90;99.90;;;;;;4912453;29;20028;-65
2023/12/04 10:37:04;;;;;;;25.60;13.77;;;-0.70;99.90;;;;;;4909030;29;20131;-65
2023/12/04 10:39:30;;;;;;;24.90;13.77;;;-0.70;99.90;;;;;;4911786;29;20385;-65
2023/12/04 10:42:02;;;;;;;22.30;12.88;;;-0.60;99.90;;;;;;4912146;29;20096;-65
2023/12/04 10:44:30;;;;;;;24.23;13.32;;;-0.50;99.90;;;;;;4913719;29;20016;-65
2023/12/04 10:47:00;;;;;;;22.85;12.63;;;-0.50;99.90;;;;;;4905060;29;20051;-65
2023/12/04 10:49:27;;;;;;;21.40;12.82;;;-0.40;99.90;;;;;;4906680;29;20035;-65
2023/12/04 10:51:57;;;;;;;19.92;11.20;;;-0.40;99.90;;;;;;4913049;29;20036;-66
2023/12/04 10:54:23;;;;;;;19.40;10.87;;;-0.40;99.90;;;;;;4909528;29;20075;-65
2023/12/04 10:56:51;;;;;;;16.98;10.38;;;-0.30;99.90;;;;;;4912642;29;20414;-65
2023/12/04 10:59:21;;;;;;;17.27;10.75;;;-0.20;99.90;;;;;;4912960;29;20071;-65
2023/12/04 11:01:50;;;;;;;18.98;10.27;;;-0.20;99.90;;;;;;4912677;29;20104;-65
2023/12/04 11:04:20;;;;;;;15.45;9.40;;;-0.10;99.90;;;;;;4912859;29;20087;-65
2023/12/04 11:06:49;;;;;;;17.80;9.82;;;-0.10;99.90;;;;;;4911959;29;20394;-65
2023/12/04 11:09:18;;;;;;;19.85;10.88;;;0.00;99.90;;;;;;4913081;29;20029;-65
2023/12/04 11:11:48;;;;;;;18.05;9.70;;;0.10;99.90;;;;;;4914464;29;20036;-65
2023/12/04 11:14:21;;;;;;;20.35;9.63;;;0.20;99.90;;;;;;4913202;29;20043;-65
2023/12/04 11:16:53;;;;;;;17.95;10.02;;;0.40;99.90;;;;;;4894845;29;20471;-65
2023/12/04 11:19:46;;;;;;;16.63;9.05;;;0.50;99.90;;;;;;4912399;29;20036;-63
2023/12/04 11:22:14;;;;;;;15.05;8.50;;;0.50;99.90;;;;;;4914189;29;20036;-65
2023/12/04 11:24:39;;;;;;;14.90;9.30;;;0.50;99.90;;;;;;4910558;29;20107;-64
2023/12/04 11:27:06;;;;;;;16.20;9.88;;;0.60;99.90;;;;;;4912804;29;20115;-66
2023/12/04 11:29:32;;;;;;;15.80;9.48;;;0.50;99.90;;;;;;4913608;29;20024;-66
2023/12/04 11:31:58;;;;;;;14.90;9.57;;;0.50;99.90;;;;;;4912453;29;20067;-66
2023/12/04 11:34:25;;;;;;;15.65;8.68;;;0.50;99.90;;;;;;4913455;29;20067;-65
2023/12/04 11:36:51;;;;;;;14.98;8.60;;;0.50;99.90;;;;;;4912416;29;20036;-63
2023/12/04 11:39:19;;;;;;;17.10;9.63;;;0.50;99.90;;;;;;4913835;29;20075;-66
2023/12/04 11:41:45;;;;;;;15.32;9.20;;;0.40;99.90;;;;;;4912358;29;20032;-64
2023/12/04 11:44:14;;;;;;;22.48;9.95;;;0.40;99.90;;;;;;4917130;29;20106;-63
2023/12/04 11:47:02;;;;;;;16.00;9.20;;;0.50;99.90;;;;;;4915528;29;20036;-64
2023/12/04 11:49:30;;;;;;;15.13;9.55;;;0.50;99.90;;;;;;4917520;29;20090;-64
2023/12/04 11:52:04;;;;;;;17.58;10.32;;;0.60;99.90;;;;;;4916111;29;20637;-64
2023/12/04 11:54:58;;;;;;;20.13;11.40;;;0.70;99.90;;;;;;4917555;29;20127;-63
2023/12/04 11:57:29;;;;;;;21.70;11.85;;;0.90;99.90;;;;;;4917042;29;20061;-64
2023/12/04 12:00:21;;;;;;;22.40;12.25;;;0.90;99.90;;;;;;4916499;29;20594;-65
2023/12/04 12:03:01;;;;;;;21.60;11.95;;;0.80;99.90;;;;;;4915735;29;20032;-65
2023/12/04 12:05:27;;;;;;;22.10;12.02;;;0.80;99.90;;;;;;4917354;29;20036;-65
2023/12/04 12:07:52;;;;;;;25.27;13.60;;;0.80;99.90;;;;;;4916017;29;20191;-64
2023/12/04 12:10:18;;;;;;;21.42;12.25;;;0.70;99.90;;;;;;4917516;29;20032;-65
2023/12/04 12:12:44;;;;;;;23.77;13.98;;;0.60;99.90;;;;;;4916145;29;20040;-64
2023/12/04 12:15:10;;;;;;;19.52;11.52;;;0.50;99.90;;;;;;4917079;29;20147;-64
2023/12/04 12:17:40;;;;;;;19.63;11.35;;;0.50;99.90;;;;;;4916115;29;20043;-64
2023/12/04 12:20:07;;;;;;;17.48;11.23;;;0.60;99.90;;;;;;4916030;29;20020;-65
2023/12/04 12:22:34;;;;;;;19.77;11.68;;;0.60;99.90;;;;;;4916678;29;20133;-64
2023/12/04 12:25:00;;;;;;;22.98;12.50;;;0.70;99.90;;;;;;4917032;29;20111;-65
2023/12/04 12:27:25;;;;;;;27.42;13.52;;;0.80;99.90;;;;;;4914920;29;20044;-64
2023/12/04 12:29:51;;;;;;;21.38;12.93;;;0.80;99.90;;;;;;4916423;29;20032;-64
2023/12/04 12:32:17;;;;;;;29.90;14.30;;;0.80;99.90;;;;;;4916544;29;20061;-64
2023/12/04 12:34:43;;;;;;;24.50;13.27;;;0.80;99.90;;;;;;4916217;29;20036;-64
2023/12/04 12:37:09;;;;;;;24.60;13.70;;;0.70;99.90;;;;;;4916103;29;20052;-64
2023/12/04 12:39:35;;;;;;;26.35;14.70;;;0.70;99.90;;;;;;4916419;29;20461;-64
2023/12/04 12:42:00;;;;;;;25.45;13.82;;;0.50;99.90;;;;;;4916655;29;20044;-64
2023/12/04 12:44:27;;;;;;;23.08;14.48;;;0.40;99.90;;;;;;4916979;29;20060;-65
2023/12/04 12:46:52;;;;;;;27.15;14.18;;;0.30;99.90;;;;;;4915340;29;20481;-64
2023/12/04 12:49:21;;;;;;;26.77;13.93;;;0.30;99.90;;;;;;4916819;29;20038;-64
2023/12/04 12:51:47;;;;;;;21.90;12.43;;;0.20;99.90;;;;;;4913660;29;20028;-65
2023/12/04 12:54:13;;;;;;;24.73;13.85;;;0.30;99.90;;;;;;4916193;29;20034;-66